sensor_id;sensor_type;location;lat;lon;timestamp;P1;durP1;ratioP1;P2;durP2;ratioP2
65130;SDS011;51709;54.912;8.316;2023-12-28T00:03:49;0.00;;;0.00;;
65130;SDS011;51709;54.912;8.316;2023-12-28T00:09:10;0.10;;;0.10;;
65130;SDS011;51709;54.912;8.316;2023-12-28T00:14:31;0.00;;;0.00;;
65130;SDS011;51709;54.912;8.316;2023-12-28T00:19:52;0.00;;;0.00;;
65130;SDS011;51709;54.912;8.316;2023-12-28T00:25:13;0.00;;;0.00;;
65130;SDS011;51709;54.912;8.316;2023-12-28T00:30:34;1.10;;;0.80;;
65130;SDS011;51709;54.912;8.316;2023-12-28T00:35:55;0.00;;;0.00;;
65130;SDS011;51709;54.912;8.316;2023-12-28T00:41:15;0.00;;;0.00;;
65130;SDS011;51709;54.912;8.316;2023-12-28T00:46:36;0.00;;;0.00;;
65130;SDS011;51709;54.912;8.316;2023-12-28T00:51:58;0.00;;;0.00;;
65130;SDS011;51709;54.912;8.316;2023-12-28T00:57:19;0.00;;;0.00;;
65130;SDS011;51709;54.912;8.316;2023-12-28T01:02:39;0.00;;;0.00;;
65130;SDS011;51709;54.912;8.316;2023-12-28T01:16:22;0.00;;;0.00;;
65130;SDS011;51709;54.912;8.316;2023-12-28T01:21:42;35.28;;;5.18;;
65130;SDS011;51709;54.912;8.316;2023-12-28T01:27:03;22.67;;;5.72;;
65130;SDS011;51709;54.912;8.316;2023-12-28T01:32:24;22.83;;;5.03;;
65130;SDS011;51709;54.912;8.316;2023-12-28T01:37:45;39.75;;;6.20;;
65130;SDS011;51709;54.912;8.316;2023-12-28T01:43:06;38.17;;;5.68;;
65130;SDS011;51709;54.912;8.316;2023-12-28T01:48:27;34.13;;;5.60;;
65130;SDS011;51709;54.912;8.316;2023-12-28T01:53:49;38.95;;;5.78;;
65130;SDS011;51709;54.912;8.316;2023-12-28T01:59:12;39.95;;;5.70;;
65130;SDS011;51709;54.912;8.316;2023-12-28T02:04:33;30.08;;;6.70;;
65130;SDS011;51709;54.912;8.316;2023-12-28T02:09:54;30.73;;;5.57;;
65130;SDS011;51709;54.912;8.316;2023-12-28T02:15:15;21.52;;;5.10;;
65130;SDS011;51709;54.912;8.316;2023-12-28T02:20:36;33.72;;;6.40;;
65130;SDS011;51709;54.912;8.316;2023-12-28T02:25:58;36.13;;;5.97;;
65130;SDS011;51709;54.912;8.316;2023-12-28T02:31:21;32.20;;;6.53;;
65130;SDS011;51709;54.912;8.316;2023-12-28T02:36:46;32.90;;;5.63;;
65130;SDS011;51709;54.912;8.316;2023-12-28T02:42:08;39.05;;;5.63;;
65130;SDS011;51709;54.912;8.316;2023-12-28T02:47:29;31.08;;;5.53;;
65130;SDS011;51709;54.912;8.316;2023-12-28T02:52:50;45.70;;;6.80;;
65130;SDS011;51709;54.912;8.316;2023-12-28T02:58:11;51.47;;;6.43;;
65130;SDS011;51709;54.912;8.316;2023-12-28T03:03:31;21.83;;;5.38;;
65130;SDS011;51709;54.912;8.316;2023-12-28T03:08:52;25.90;;;4.88;;
65130;SDS011;51709;54.912;8.316;2023-12-28T03:14:12;32.55;;;5.82;;
65130;SDS011;51709;54.912;8.316;2023-12-28T03:19:32;39.60;;;7.15;;
65130;SDS011;51709;54.912;8.316;2023-12-28T03:24:53;31.67;;;5.03;;
65130;SDS011;51709;54.912;8.316;2023-12-28T03:30:14;46.65;;;6.72;;
65130;SDS011;51709;54.912;8.316;2023-12-28T03:35:34;28.73;;;5.80;;
65130;SDS011;51709;54.912;8.316;2023-12-28T03:40:55;34.28;;;6.25;;
65130;SDS011;51709;54.912;8.316;2023-12-28T03:46:16;47.38;;;5.40;;
65130;SDS011;51709;54.912;8.316;2023-12-28T03:51:37;32.40;;;5.25;;
65130;SDS011;51709;54.912;8.316;2023-12-28T03:56:57;34.28;;;5.30;;
65130;SDS011;51709;54.912;8.316;2023-12-28T04:02:18;30.92;;;5.25;;
65130;SDS011;51709;54.912;8.316;2023-12-28T04:07:39;45.60;;;5.93;;
65130;SDS011;51709;54.912;8.316;2023-12-28T04:12:59;32.75;;;5.30;;
65130;SDS011;51709;54.912;8.316;2023-12-28T04:18:20;25.17;;;4.88;;
65130;SDS011;51709;54.912;8.316;2023-12-28T04:23:41;36.78;;;5.47;;
65130;SDS011;51709;54.912;8.316;2023-12-28T04:29:02;40.30;;;5.60;;
65130;SDS011;51709;54.912;8.316;2023-12-28T04:34:23;31.75;;;4.30;;
65130;SDS011;51709;54.912;8.316;2023-12-28T04:39:44;43.03;;;6.18;;
65130;SDS011;51709;54.912;8.316;2023-12-28T04:45:05;39.50;;;6.35;;
65130;SDS011;51709;54.912;8.316;2023-12-28T04:50:26;27.42;;;4.63;;
65130;SDS011;51709;54.912;8.316;2023-12-28T04:55:47;29.98;;;5.38;;
65130;SDS011;51709;54.912;8.316;2023-12-28T05:01:08;26.27;;;4.18;;
65130;SDS011;51709;54.912;8.316;2023-12-28T05:06:28;28.35;;;5.38;;
65130;SDS011;51709;54.912;8.316;2023-12-28T05:11:50;32.92;;;5.82;;
65130;SDS011;51709;54.912;8.316;2023-12-28T05:17:10;26.55;;;5.60;;
65130;SDS011;51709;54.912;8.316;2023-12-28T05:22:31;38.67;;;4.93;;
65130;SDS011;51709;54.912;8.316;2023-12-28T05:27:51;29.85;;;5.05;;
65130;SDS011;51709;54.912;8.316;2023-12-28T05:33:12;30.00;;;5.18;;
65130;SDS011;51709;54.912;8.316;2023-12-28T05:38:33;30.83;;;5.75;;
65130;SDS011;51709;54.912;8.316;2023-12-28T05:43:53;23.60;;;5.43;;
65130;SDS011;51709;54.912;8.316;2023-12-28T05:49:14;27.02;;;5.00;;
65130;SDS011;51709;54.912;8.316;2023-12-28T05:54:35;21.30;;;5.47;;
65130;SDS011;51709;54.912;8.316;2023-12-28T05:59:55;25.05;;;4.15;;
65130;SDS011;51709;54.912;8.316;2023-12-28T06:05:17;32.40;;;5.88;;
65130;SDS011;51709;54.912;8.316;2023-12-28T06:10:38;27.60;;;6.00;;
65130;SDS011;51709;54.912;8.316;2023-12-28T06:15:58;32.95;;;5.10;;
65130;SDS011;51709;54.912;8.316;2023-12-28T06:21:19;35.88;;;5.93;;
65130;SDS011;51709;54.912;8.316;2023-12-28T06:26:43;26.25;;;5.32;;
65130;SDS011;51709;54.912;8.316;2023-12-28T06:37:25;31.48;;;5.57;;
65130;SDS011;51709;54.912;8.316;2023-12-28T06:42:46;42.72;;;7.03;;
65130;SDS011;51709;54.912;8.316;2023-12-28T06:48:06;4.38;;;0.63;;
65130;SDS011;51709;54.912;8.316;2023-12-28T06:53:27;0.00;;;0.00;;
65130;SDS011;51709;54.912;8.316;2023-12-28T06:58:47;0.00;;;0.00;;
65130;SDS011;51709;54.912;8.316;2023-12-28T07:04:08;0.15;;;0.15;;
65130;SDS011;51709;54.912;8.316;2023-12-28T07:09:29;0.03;;;0.03;;
65130;SDS011;51709;54.912;8.316;2023-12-28T07:14:49;0.00;;;0.00;;
65130;SDS011;51709;54.912;8.316;2023-12-28T07:20:10;35.22;;;6.22;;
65130;SDS011;51709;54.912;8.316;2023-12-28T07:25:32;63.63;;;7.47;;
65130;SDS011;51709;54.912;8.316;2023-12-28T07:30:53;40.40;;;7.68;;
65130;SDS011;51709;54.912;8.316;2023-12-28T07:36:14;80.95;;;9.43;;
65130;SDS011;51709;54.912;8.316;2023-12-28T07:41:34;51.28;;;10.32;;
65130;SDS011;51709;54.912;8.316;2023-12-28T07:46:55;43.55;;;6.95;;
65130;SDS011;51709;54.912;8.316;2023-12-28T07:52:15;76.72;;;8.75;;
65130;SDS011;51709;54.912;8.316;2023-12-28T07:57:36;43.20;;;8.48;;
65130;SDS011;51709;54.912;8.316;2023-12-28T08:02:57;51.45;;;7.53;;
65130;SDS011;51709;54.912;8.316;2023-12-28T08:08:19;65.88;;;8.98;;
65130;SDS011;51709;54.912;8.316;2023-12-28T08:13:39;63.25;;;9.20;;
65130;SDS011;51709;54.912;8.316;2023-12-28T08:19:01;71.10;;;8.77;;
65130;SDS011;51709;54.912;8.316;2023-12-28T08:24:21;81.20;;;10.60;;
65130;SDS011;51709;54.912;8.316;2023-12-28T08:29:42;59.22;;;10.05;;
65130;SDS011;51709;54.912;8.316;2023-12-28T08:35:03;62.53;;;8.63;;
65130;SDS011;51709;54.912;8.316;2023-12-28T08:40:23;70.53;;;10.77;;
65130;SDS011;51709;54.912;8.316;2023-12-28T08:45:44;66.30;;;8.80;;
65130;SDS011;51709;54.912;8.316;2023-12-28T08:51:05;46.80;;;7.07;;
65130;SDS011;51709;54.912;8.316;2023-12-28T08:56:25;57.15;;;9.48;;
65130;SDS011;51709;54.912;8.316;2023-12-28T09:01:45;0.00;;;0.00;;
65130;SDS011;51709;54.912;8.316;2023-12-28T09:07:06;0.00;;;0.00;;
65130;SDS011;51709;54.912;8.316;2023-12-28T09:12:26;0.00;;;0.00;;
65130;SDS011;51709;54.912;8.316;2023-12-28T09:17:47;0.00;;;0.00;;
65130;SDS011;51709;54.912;8.316;2023-12-28T09:23:08;52.55;;;7.43;;
65130;SDS011;51709;54.912;8.316;2023-12-28T09:28:30;62.25;;;7.78;;
65130;SDS011;51709;54.912;8.316;2023-12-28T09:33:51;51.85;;;8.98;;
65130;SDS011;51709;54.912;8.316;2023-12-28T09:39:12;57.28;;;7.82;;
65130;SDS011;51709;54.912;8.316;2023-12-28T09:44:34;60.90;;;7.93;;
65130;SDS011;51709;54.912;8.316;2023-12-28T09:49:58;68.10;;;11.95;;
65130;SDS011;51709;54.912;8.316;2023-12-28T09:55:19;54.75;;;9.63;;
65130;SDS011;51709;54.912;8.316;2023-12-28T10:00:40;54.42;;;10.23;;
65130;SDS011;51709;54.912;8.316;2023-12-28T10:06:01;69.45;;;10.02;;
65130;SDS011;51709;54.912;8.316;2023-12-28T10:11:22;63.65;;;11.23;;
65130;SDS011;51709;54.912;8.316;2023-12-28T10:16:44;59.65;;;10.00;;
65130;SDS011;51709;54.912;8.316;2023-12-28T10:22:05;72.72;;;10.30;;
65130;SDS011;51709;54.912;8.316;2023-12-28T10:27:26;51.05;;;10.27;;
65130;SDS011;51709;54.912;8.316;2023-12-28T10:32:47;59.45;;;8.90;;
65130;SDS011;51709;54.912;8.316;2023-12-28T10:38:08;40.95;;;7.88;;
65130;SDS011;51709;54.912;8.316;2023-12-28T10:49:00;52.15;;;8.07;;
65130;SDS011;51709;54.912;8.316;2023-12-28T11:00:13;54.80;;;8.55;;
65130;SDS011;51709;54.912;8.316;2023-12-28T11:05:43;48.72;;;8.30;;
65130;SDS011;51709;54.912;8.316;2023-12-28T11:11:04;69.57;;;8.43;;
65130;SDS011;51709;54.912;8.316;2023-12-28T11:16:25;39.40;;;6.90;;
65130;SDS011;51709;54.912;8.316;2023-12-28T11:21:49;40.10;;;8.53;;
65130;SDS011;51709;54.912;8.316;2023-12-28T11:27:11;40.83;;;7.22;;
65130;SDS011;51709;54.912;8.316;2023-12-28T11:32:33;35.63;;;7.07;;
65130;SDS011;51709;54.912;8.316;2023-12-28T11:37:57;36.13;;;6.13;;
65130;SDS011;51709;54.912;8.316;2023-12-28T11:43:18;38.38;;;7.05;;
65130;SDS011;51709;54.912;8.316;2023-12-28T11:48:40;48.92;;;8.52;;
65130;SDS011;51709;54.912;8.316;2023-12-28T11:54:00;59.88;;;8.07;;
65130;SDS011;51709;54.912;8.316;2023-12-28T11:59:24;39.42;;;6.22;;
65130;SDS011;51709;54.912;8.316;2023-12-28T12:04:44;46.35;;;8.30;;
65130;SDS011;51709;54.912;8.316;2023-12-28T12:10:15;69.68;;;11.70;;
65130;SDS011;51709;54.912;8.316;2023-12-28T12:15:36;53.95;;;9.18;;
65130;SDS011;51709;54.912;8.316;2023-12-28T12:20:56;69.10;;;10.27;;
65130;SDS011;51709;54.912;8.316;2023-12-28T12:26:18;49.05;;;7.10;;
65130;SDS011;51709;54.912;8.316;2023-12-28T12:31:38;57.38;;;8.93;;
65130;SDS011;51709;54.912;8.316;2023-12-28T12:37:02;52.90;;;8.35;;
65130;SDS011;51709;54.912;8.316;2023-12-28T12:42:23;47.83;;;8.32;;
65130;SDS011;51709;54.912;8.316;2023-12-28T12:47:44;71.15;;;11.20;;
65130;SDS011;51709;54.912;8.316;2023-12-28T12:53:06;69.00;;;10.20;;
65130;SDS011;51709;54.912;8.316;2023-12-28T12:58:28;67.53;;;10.52;;
65130;SDS011;51709;54.912;8.316;2023-12-28T13:03:54;73.32;;;11.18;;
65130;SDS011;51709;54.912;8.316;2023-12-28T13:09:17;61.92;;;9.52;;
65130;SDS011;51709;54.912;8.316;2023-12-28T13:14:38;55.83;;;9.93;;
65130;SDS011;51709;54.912;8.316;2023-12-28T13:19:59;72.75;;;10.73;;
65130;SDS011;51709;54.912;8.316;2023-12-28T13:25:20;62.75;;;10.98;;
65130;SDS011;51709;54.912;8.316;2023-12-28T13:30:40;66.72;;;9.93;;
65130;SDS011;51709;54.912;8.316;2023-12-28T13:36:01;74.50;;;14.10;;
65130;SDS011;51709;54.912;8.316;2023-12-28T13:41:23;54.55;;;11.05;;
65130;SDS011;51709;54.912;8.316;2023-12-28T13:46:43;62.95;;;11.43;;
65130;SDS011;51709;54.912;8.316;2023-12-28T13:52:04;89.43;;;11.02;;
65130;SDS011;51709;54.912;8.316;2023-12-28T13:57:25;54.15;;;9.52;;
65130;SDS011;51709;54.912;8.316;2023-12-28T14:02:45;69.70;;;10.93;;
65130;SDS011;51709;54.912;8.316;2023-12-28T14:08:06;57.95;;;10.73;;
65130;SDS011;51709;54.912;8.316;2023-12-28T14:13:27;68.78;;;9.50;;
65130;SDS011;51709;54.912;8.316;2023-12-28T14:18:49;57.20;;;10.38;;
65130;SDS011;51709;54.912;8.316;2023-12-28T14:24:09;67.60;;;9.70;;
65130;SDS011;51709;54.912;8.316;2023-12-28T14:29:30;57.85;;;9.80;;
65130;SDS011;51709;54.912;8.316;2023-12-28T14:34:51;63.30;;;10.95;;
65130;SDS011;51709;54.912;8.316;2023-12-28T14:40:12;84.80;;;12.38;;
65130;SDS011;51709;54.912;8.316;2023-12-28T14:45:33;63.50;;;11.40;;
65130;SDS011;51709;54.912;8.316;2023-12-28T14:50:53;72.40;;;11.63;;
65130;SDS011;51709;54.912;8.316;2023-12-28T14:56:14;59.60;;;10.07;;
65130;SDS011;51709;54.912;8.316;2023-12-28T15:01:35;74.07;;;12.18;;
65130;SDS011;51709;54.912;8.316;2023-12-28T15:06:55;81.18;;;10.88;;
65130;SDS011;51709;54.912;8.316;2023-12-28T15:12:16;81.10;;;11.38;;
65130;SDS011;51709;54.912;8.316;2023-12-28T15:17:36;59.95;;;11.48;;
65130;SDS011;51709;54.912;8.316;2023-12-28T15:22:57;61.05;;;10.73;;
65130;SDS011;51709;54.912;8.316;2023-12-28T15:28:19;71.80;;;11.15;;
65130;SDS011;51709;54.912;8.316;2023-12-28T15:33:41;61.03;;;10.38;;
65130;SDS011;51709;54.912;8.316;2023-12-28T15:39:01;79.35;;;10.82;;
65130;SDS011;51709;54.912;8.316;2023-12-28T15:44:25;78.60;;;12.57;;
65130;SDS011;51709;54.912;8.316;2023-12-28T15:49:46;79.00;;;11.52;;
65130;SDS011;51709;54.912;8.316;2023-12-28T15:55:07;55.30;;;10.75;;
65130;SDS011;51709;54.912;8.316;2023-12-28T16:00:28;60.85;;;10.00;;
65130;SDS011;51709;54.912;8.316;2023-12-28T16:05:49;66.80;;;11.20;;
65130;SDS011;51709;54.912;8.316;2023-12-28T16:11:10;66.85;;;11.35;;
65130;SDS011;51709;54.912;8.316;2023-12-28T16:16:31;71.88;;;11.00;;
65130;SDS011;51709;54.912;8.316;2023-12-28T16:21:51;48.83;;;9.05;;
65130;SDS011;51709;54.912;8.316;2023-12-28T16:27:13;65.13;;;10.88;;
65130;SDS011;51709;54.912;8.316;2023-12-28T16:32:34;64.47;;;10.68;;
65130;SDS011;51709;54.912;8.316;2023-12-28T16:37:54;69.55;;;10.80;;
65130;SDS011;51709;54.912;8.316;2023-12-28T16:43:15;60.10;;;10.10;;
65130;SDS011;51709;54.912;8.316;2023-12-28T16:48:35;64.03;;;9.75;;
65130;SDS011;51709;54.912;8.316;2023-12-28T16:53:58;58.75;;;8.50;;
65130;SDS011;51709;54.912;8.316;2023-12-28T16:59:18;67.43;;;9.80;;
65130;SDS011;51709;54.912;8.316;2023-12-28T17:04:39;66.13;;;9.75;;
65130;SDS011;51709;54.912;8.316;2023-12-28T17:10:00;54.95;;;8.63;;
65130;SDS011;51709;54.912;8.316;2023-12-28T17:15:24;69.03;;;9.02;;
65130;SDS011;51709;54.912;8.316;2023-12-28T17:20:45;68.38;;;9.52;;
65130;SDS011;51709;54.912;8.316;2023-12-28T17:26:08;49.17;;;8.65;;
65130;SDS011;51709;54.912;8.316;2023-12-28T17:31:37;53.58;;;10.70;;
65130;SDS011;51709;54.912;8.316;2023-12-28T17:36:58;34.78;;;6.88;;
65130;SDS011;51709;54.912;8.316;2023-12-28T17:42:20;54.65;;;8.52;;
65130;SDS011;51709;54.912;8.316;2023-12-28T17:47:54;41.67;;;7.60;;
65130;SDS011;51709;54.912;8.316;2023-12-28T17:53:21;47.97;;;8.35;;
65130;SDS011;51709;54.912;8.316;2023-12-28T17:58:42;48.50;;;7.50;;
65130;SDS011;51709;54.912;8.316;2023-12-28T18:04:03;58.05;;;7.25;;
65130;SDS011;51709;54.912;8.316;2023-12-28T18:09:24;45.13;;;7.30;;
65130;SDS011;51709;54.912;8.316;2023-12-28T18:14:46;40.53;;;6.35;;
65130;SDS011;51709;54.912;8.316;2023-12-28T18:20:07;49.25;;;5.97;;
65130;SDS011;51709;54.912;8.316;2023-12-28T18:25:29;36.70;;;5.68;;
65130;SDS011;51709;54.912;8.316;2023-12-28T18:30:50;52.28;;;7.20;;
65130;SDS011;51709;54.912;8.316;2023-12-28T18:36:11;39.60;;;6.45;;
65130;SDS011;51709;54.912;8.316;2023-12-28T18:41:38;41.45;;;6.70;;
65130;SDS011;51709;54.912;8.316;2023-12-28T18:46:58;43.15;;;6.65;;
65130;SDS011;51709;54.912;8.316;2023-12-28T18:52:19;47.80;;;6.85;;
65130;SDS011;51709;54.912;8.316;2023-12-28T18:57:40;34.03;;;6.15;;
65130;SDS011;51709;54.912;8.316;2023-12-28T19:03:01;40.88;;;7.38;;
65130;SDS011;51709;54.912;8.316;2023-12-28T19:08:22;46.30;;;6.38;;
65130;SDS011;51709;54.912;8.316;2023-12-28T19:13:43;33.10;;;5.15;;
65130;SDS011;51709;54.912;8.316;2023-12-28T19:19:03;26.17;;;4.95;;
65130;SDS011;51709;54.912;8.316;2023-12-28T19:24:24;32.40;;;4.30;;
65130;SDS011;51709;54.912;8.316;2023-12-28T19:29:45;30.70;;;7.95;;
65130;SDS011;51709;54.912;8.316;2023-12-28T19:35:05;40.60;;;6.55;;
65130;SDS011;51709;54.912;8.316;2023-12-28T19:40:27;29.95;;;4.68;;
65130;SDS011;51709;54.912;8.316;2023-12-28T19:45:48;35.45;;;5.82;;
65130;SDS011;51709;54.912;8.316;2023-12-28T19:51:09;42.13;;;7.47;;
65130;SDS011;51709;54.912;8.316;2023-12-28T19:56:30;51.47;;;8.93;;
65130;SDS011;51709;54.912;8.316;2023-12-28T20:01:51;47.33;;;7.57;;
65130;SDS011;51709;54.912;8.316;2023-12-28T20:07:14;47.00;;;7.55;;
65130;SDS011;51709;54.912;8.316;2023-12-28T20:12:34;53.03;;;7.85;;
65130;SDS011;51709;54.912;8.316;2023-12-28T20:17:54;37.88;;;6.50;;
65130;SDS011;51709;54.912;8.316;2023-12-28T20:23:15;45.65;;;8.02;;
65130;SDS011;51709;54.912;8.316;2023-12-28T20:28:36;54.15;;;8.25;;
65130;SDS011;51709;54.912;8.316;2023-12-28T20:33:56;40.92;;;8.50;;
65130;SDS011;51709;54.912;8.316;2023-12-28T20:39:17;40.15;;;7.18;;
65130;SDS011;51709;54.912;8.316;2023-12-28T20:44:38;50.92;;;7.20;;
65130;SDS011;51709;54.912;8.316;2023-12-28T20:49:58;51.63;;;8.63;;
65130;SDS011;51709;54.912;8.316;2023-12-28T20:55:19;46.88;;;6.65;;
65130;SDS011;51709;54.912;8.316;2023-12-28T21:00:40;39.40;;;4.68;;
65130;SDS011;51709;54.912;8.316;2023-12-28T21:06:01;52.75;;;8.65;;
65130;SDS011;51709;54.912;8.316;2023-12-28T21:11:21;61.20;;;7.75;;
65130;SDS011;51709;54.912;8.316;2023-12-28T21:16:42;48.47;;;6.88;;
65130;SDS011;51709;54.912;8.316;2023-12-28T21:22:03;66.03;;;8.70;;
65130;SDS011;51709;54.912;8.316;2023-12-28T21:27:23;44.60;;;6.70;;
65130;SDS011;51709;54.912;8.316;2023-12-28T21:32:44;59.97;;;6.63;;
65130;SDS011;51709;54.912;8.316;2023-12-28T21:38:04;51.70;;;8.00;;
65130;SDS011;51709;54.912;8.316;2023-12-28T21:43:28;42.27;;;7.27;;
65130;SDS011;51709;54.912;8.316;2023-12-28T21:48:49;45.78;;;6.00;;
65130;SDS011;51709;54.912;8.316;2023-12-28T21:54:10;48.00;;;7.50;;
65130;SDS011;51709;54.912;8.316;2023-12-28T21:59:31;52.78;;;7.30;;
65130;SDS011;51709;54.912;8.316;2023-12-28T22:04:51;55.45;;;7.65;;
65130;SDS011;51709;54.912;8.316;2023-12-28T22:10:12;49.15;;;7.53;;
65130;SDS011;51709;54.912;8.316;2023-12-28T22:15:34;47.45;;;8.57;;
65130;SDS011;51709;54.912;8.316;2023-12-28T22:20:54;42.35;;;6.47;;
65130;SDS011;51709;54.912;8.316;2023-12-28T22:26:15;43.92;;;8.30;;
65130;SDS011;51709;54.912;8.316;2023-12-28T22:31:36;55.33;;;8.50;;
65130;SDS011;51709;54.912;8.316;2023-12-28T22:36:57;47.67;;;6.85;;
65130;SDS011;51709;54.912;8.316;2023-12-28T22:42:17;42.90;;;6.68;;
65130;SDS011;51709;54.912;8.316;2023-12-28T22:47:38;39.50;;;6.20;;
65130;SDS011;51709;54.912;8.316;2023-12-28T22:52:59;52.00;;;5.93;;
65130;SDS011;51709;54.912;8.316;2023-12-28T22:58:20;64.47;;;8.20;;
65130;SDS011;51709;54.912;8.316;2023-12-28T23:03:41;54.13;;;7.05;;
65130;SDS011;51709;54.912;8.316;2023-12-28T23:09:01;29.17;;;4.95;;
65130;SDS011;51709;54.912;8.316;2023-12-28T23:14:24;37.55;;;5.65;;
65130;SDS011;51709;54.912;8.316;2023-12-28T23:19:45;27.02;;;5.10;;
65130;SDS011;51709;54.912;8.316;2023-12-28T23:25:08;30.55;;;5.32;;
65130;SDS011;51709;54.912;8.316;2023-12-28T23:30:28;37.97;;;6.10;;
65130;SDS011;51709;54.912;8.316;2023-12-28T23:35:50;40.38;;;6.53;;
65130;SDS011;51709;54.912;8.316;2023-12-28T23:41:10;33.03;;;6.25;;
65130;SDS011;51709;54.912;8.316;2023-12-28T23:46:31;49.78;;;7.18;;
65130;SDS011;51709;54.912;8.316;2023-12-28T23:51:51;37.92;;;6.18;;
65130;SDS011;51709;54.912;8.316;2023-12-28T23:57:12;45.35;;;5.93;;
